sensor_id;sensor_type;location;lat;lon;timestamp;pressure;altitude;pressure_sealevel;temperature;humidity
67345;BME280;54230;52.402;6.276;2023-02-04T00:00:01;103200.0;;;6.1;98.6
67345;BME280;54230;52.402;6.276;2023-02-04T00:05:00;103220.0;;;6.3;98.1
67345;BME280;54230;52.402;6.276;2023-02-04T00:10:00;103220.0;;;6.3;98.4
67345;BME280;54230;52.402;6.276;2023-02-04T00:15:00;103230.0;;;6.4;98.3
67345;BME280;54230;52.402;6.276;2023-02-04T00:20:00;103230.0;;;6.4;97.8
67345;BME280;54230;52.402;6.276;2023-02-04T00:25:00;103230.0;;;6.4;97.7
67345;BME280;54230;52.402;6.276;2023-02-04T00:30:00;103240.00000000001;;;6.4;98.0
67345;BME280;54230;52.402;6.276;2023-02-04T00:35:00;103240.00000000001;;;6.4;97.9
67345;BME280;54230;52.402;6.276;2023-02-04T00:40:00;103250.0;;;6.4;98.1
67345;BME280;54230;52.402;6.276;2023-02-04T00:45:00;103250.0;;;6.3;97.6
67345;BME280;54230;52.402;6.276;2023-02-04T00:50:00;103259.99999999999;;;6.3;98.4
67345;BME280;54230;52.402;6.276;2023-02-04T00:55:00;103250.0;;;6.2;98.2
67345;BME280;54230;52.402;6.276;2023-02-04T01:00:00;103270.0;;;6.2;98.8
67345;BME280;54230;52.402;6.276;2023-02-04T01:05:00;103280.0;;;6.1;98.6
67345;BME280;54230;52.402;6.276;2023-02-04T01:10:00;103259.99999999999;;;5.9;98.9
67345;BME280;54230;52.402;6.276;2023-02-04T01:15:00;103280.0;;;6.1;99.1
67345;BME280;54230;52.402;6.276;2023-02-04T01:20:00;103270.0;;;6.0;99.1
67345;BME280;54230;52.402;6.276;2023-02-04T01:25:00;103290.00000000001;;;6.2;98.9
67345;BME280;54230;52.402;6.276;2023-02-04T01:30:00;103300.0;;;6.2;98.7
67345;BME280;54230;52.402;6.276;2023-02-04T01:35:00;103300.0;;;6.2;99.0
67345;BME280;54230;52.402;6.276;2023-02-04T01:40:00;103290.00000000001;;;6.2;99.0
67345;BME280;54230;52.402;6.276;2023-02-04T01:45:00;103280.0;;;6.1;98.9
67345;BME280;54230;52.402;6.276;2023-02-04T01:50:00;103309.99999999999;;;6.3;98.8
67345;BME280;54230;52.402;6.276;2023-02-04T01:55:00;103300.0;;;6.1;99.4
67345;BME280;54230;52.402;6.276;2023-02-04T02:00:00;103320.0;;;6.2;99.9
67345;BME280;54230;52.402;6.276;2023-02-04T02:05:00;103300.0;;;6.1;99.7
67345;BME280;54230;52.402;6.276;2023-02-04T02:10:01;103320.0;;;6.1;100.0
67345;BME280;54230;52.402;6.276;2023-02-04T02:15:00;103330.0;;;6.2;100.0
67345;BME280;54230;52.402;6.276;2023-02-04T02:20:00;103320.0;;;6.1;100.0
67345;BME280;54230;52.402;6.276;2023-02-04T02:25:00;103340.00000000001;;;6.2;100.0
67345;BME280;54230;52.402;6.276;2023-02-04T02:30:00;103340.00000000001;;;6.2;100.0
67345;BME280;54230;52.402;6.276;2023-02-04T02:35:00;103340.00000000001;;;6.3;100.0
67345;BME280;54230;52.402;6.276;2023-02-04T02:40:00;103309.99999999999;;;6.1;100.0
67345;BME280;54230;52.402;6.276;2023-02-04T02:45:03;103340.00000000001;;;6.3;100.0
67345;BME280;54230;52.402;6.276;2023-02-04T02:50:00;103350.0;;;6.3;100.0
67345;BME280;54230;52.402;6.276;2023-02-04T02:55:00;103350.0;;;6.3;100.0
67345;BME280;54230;52.402;6.276;2023-02-04T03:00:00;103359.99999999999;;;6.2;100.0
67345;BME280;54230;52.402;6.276;2023-02-04T03:05:00;103350.0;;;6.2;100.0
67345;BME280;54230;52.402;6.276;2023-02-04T03:10:00;103370.0;;;6.2;100.0
67345;BME280;54230;52.402;6.276;2023-02-04T03:15:00;103359.99999999999;;;6.2;100.0
67345;BME280;54230;52.402;6.276;2023-02-04T03:20:01;103370.0;;;6.2;100.0
67345;BME280;54230;52.402;6.276;2023-02-04T03:25:00;103370.0;;;6.2;100.0
67345;BME280;54230;52.402;6.276;2023-02-04T03:30:00;103370.0;;;6.1;100.0
67345;BME280;54230;52.402;6.276;2023-02-04T03:35:00;103380.0;;;6.2;100.0
67345;BME280;54230;52.402;6.276;2023-02-04T03:40:00;103359.99999999999;;;6.1;100.0
67345;BME280;54230;52.402;6.276;2023-02-04T03:45:00;103390.00000000001;;;6.2;100.0
67345;BME280;54230;52.402;6.276;2023-02-04T03:50:00;103390.00000000001;;;6.2;100.0
67345;BME280;54230;52.402;6.276;2023-02-04T03:55:00;103390.00000000001;;;6.2;100.0
67345;BME280;54230;52.402;6.276;2023-02-04T04:00:00;103390.00000000001;;;6.2;100.0
67345;BME280;54230;52.402;6.276;2023-02-04T04:05:00;103370.0;;;6.1;100.0
67345;BME280;54230;52.402;6.276;2023-02-04T04:10:00;103390.00000000001;;;6.2;100.0
67345;BME280;54230;52.402;6.276;2023-02-04T04:15:00;103390.00000000001;;;6.2;100.0
67345;BME280;54230;52.402;6.276;2023-02-04T04:20:00;103409.99999999999;;;6.2;100.0
67345;BME280;54230;52.402;6.276;2023-02-04T04:25:00;103409.99999999999;;;6.2;100.0
67345;BME280;54230;52.402;6.276;2023-02-04T04:30:00;103400.0;;;6.0;100.0
67345;BME280;54230;52.402;6.276;2023-02-04T04:35:00;103420.0;;;6.2;100.0
67345;BME280;54230;52.402;6.276;2023-02-04T04:40:00;103430.0;;;6.2;100.0
67345;BME280;54230;52.402;6.276;2023-02-04T04:45:00;103440.00000000001;;;6.1;100.0
67345;BME280;54230;52.402;6.276;2023-02-04T04:50:00;103450.0;;;6.2;100.0
67345;BME280;54230;52.402;6.276;2023-02-04T04:55:00;103440.00000000001;;;6.1;100.0
67345;BME280;54230;52.402;6.276;2023-02-04T05:00:00;103450.0;;;6.1;100.0
67345;BME280;54230;52.402;6.276;2023-02-04T05:05:00;103470.0;;;6.0;100.0
67345;BME280;54230;52.402;6.276;2023-02-04T05:10:01;103450.0;;;5.9;100.0
67345;BME280;54230;52.402;6.276;2023-02-04T05:15:00;103440.00000000001;;;5.8;100.0
67345;BME280;54230;52.402;6.276;2023-02-04T05:20:00;103480.0;;;6.0;100.0
67345;BME280;54230;52.402;6.276;2023-02-04T05:25:00;103480.0;;;6.0;100.0
67345;BME280;54230;52.402;6.276;2023-02-04T05:30:00;103480.0;;;6.0;100.0
67345;BME280;54230;52.402;6.276;2023-02-04T05:35:00;103470.0;;;6.0;100.0
67345;BME280;54230;52.402;6.276;2023-02-04T05:40:00;103470.0;;;6.0;100.0
67345;BME280;54230;52.402;6.276;2023-02-04T05:45:00;103480.0;;;6.1;100.0
67345;BME280;54230;52.402;6.276;2023-02-04T05:50:00;103480.0;;;6.1;100.0
67345;BME280;54230;52.402;6.276;2023-02-04T05:55:00;103480.0;;;6.1;100.0
67345;BME280;54230;52.402;6.276;2023-02-04T06:00:00;103480.0;;;6.1;100.0
67345;BME280;54230;52.402;6.276;2023-02-04T06:05:00;103490.00000000001;;;6.1;100.0
67345;BME280;54230;52.402;6.276;2023-02-04T06:10:00;103490.00000000001;;;6.1;100.0
67345;BME280;54230;52.402;6.276;2023-02-04T06:15:00;103500.0;;;6.1;100.0
67345;BME280;54230;52.402;6.276;2023-02-04T06:20:00;103509.99999999999;;;6.0;100.0
67345;BME280;54230;52.402;6.276;2023-02-04T06:25:00;103509.99999999999;;;6.0;100.0
67345;BME280;54230;52.402;6.276;2023-02-04T06:30:00;103520.0;;;6.1;100.0
67345;BME280;54230;52.402;6.276;2023-02-04T06:35:00;103540.00000000001;;;6.1;100.0
67345;BME280;54230;52.402;6.276;2023-02-04T06:40:00;103530.0;;;6.1;100.0
67345;BME280;54230;52.402;6.276;2023-02-04T06:45:00;103530.0;;;6.0;100.0
67345;BME280;54230;52.402;6.276;2023-02-04T06:50:00;103530.0;;;6.0;100.0
67345;BME280;54230;52.402;6.276;2023-02-04T06:55:00;103540.00000000001;;;6.0;100.0
67345;BME280;54230;52.402;6.276;2023-02-04T07:00:00;103550.0;;;6.0;100.0
67345;BME280;54230;52.402;6.276;2023-02-04T07:05:00;103550.0;;;6.0;100.0
67345;BME280;54230;52.402;6.276;2023-02-04T07:10:00;103559.99999999999;;;6.0;100.0
67345;BME280;54230;52.402;6.276;2023-02-04T07:15:00;103570.0;;;6.0;100.0
67345;BME280;54230;52.402;6.276;2023-02-04T07:20:00;103570.0;;;6.0;100.0
67345;BME280;54230;52.402;6.276;2023-02-04T07:25:00;103570.0;;;6.0;100.0
67345;BME280;54230;52.402;6.276;2023-02-04T07:30:00;103580.0;;;6.1;100.0
67345;BME280;54230;52.402;6.276;2023-02-04T07:35:00;103570.0;;;6.0;100.0
67345;BME280;54230;52.402;6.276;2023-02-04T07:40:00;103590.00000000001;;;6.1;100.0
67345;BME280;54230;52.402;6.276;2023-02-04T07:45:00;103600.0;;;6.2;100.0
67345;BME280;54230;52.402;6.276;2023-02-04T07:50:00;103609.99999999999;;;6.2;100.0
67345;BME280;54230;52.402;6.276;2023-02-04T07:55:00;103609.99999999999;;;6.2;100.0
67345;BME280;54230;52.402;6.276;2023-02-04T08:00:00;103620.0;;;6.2;100.0
67345;BME280;54230;52.402;6.276;2023-02-04T08:05:00;103630.0;;;6.2;100.0
67345;BME280;54230;52.402;6.276;2023-02-04T08:10:00;103630.0;;;6.3;100.0
67345;BME280;54230;52.402;6.276;2023-02-04T08:15:00;103640.00000000001;;;6.3;100.0
67345;BME280;54230;52.402;6.276;2023-02-04T08:20:00;103650.0;;;6.3;100.0
67345;BME280;54230;52.402;6.276;2023-02-04T08:25:00;103650.0;;;6.4;100.0
67345;BME280;54230;52.402;6.276;2023-02-04T08:30:00;103659.99999999999;;;6.5;100.0
67345;BME280;54230;52.402;6.276;2023-02-04T08:35:00;103670.0;;;6.6;100.0
67345;BME280;54230;52.402;6.276;2023-02-04T08:40:00;103659.99999999999;;;6.6;100.0
67345;BME280;54230;52.402;6.276;2023-02-04T08:45:00;103670.0;;;6.7;100.0
67345;BME280;54230;52.402;6.276;2023-02-04T08:50:00;103670.0;;;6.8;100.0
67345;BME280;54230;52.402;6.276;2023-02-04T08:55:00;103680.0;;;6.9;100.0
67345;BME280;54230;52.402;6.276;2023-02-04T09:00:00;103680.0;;;7.1;100.0
67345;BME280;54230;52.402;6.276;2023-02-04T09:05:00;103690.00000000001;;;7.2;100.0
67345;BME280;54230;52.402;6.276;2023-02-04T09:10:00;103690.00000000001;;;7.3;100.0
67345;BME280;54230;52.402;6.276;2023-02-04T09:15:00;103690.00000000001;;;7.4;100.0
67345;BME280;54230;52.402;6.276;2023-02-04T09:20:00;103700.0;;;7.4;100.0
67345;BME280;54230;52.402;6.276;2023-02-04T09:25:00;103700.0;;;7.5;100.0
67345;BME280;54230;52.402;6.276;2023-02-04T09:30:00;103690.00000000001;;;7.7;100.0
67345;BME280;54230;52.402;6.276;2023-02-04T09:35:01;103690.00000000001;;;7.9;99.0
67345;BME280;54230;52.402;6.276;2023-02-04T09:40:00;103690.00000000001;;;8.0;97.7
67345;BME280;54230;52.402;6.276;2023-02-04T09:45:01;103690.00000000001;;;8.1;98.1
67345;BME280;54230;52.402;6.276;2023-02-04T09:50:00;103709.99999999999;;;8.4;97.5
67345;BME280;54230;52.402;6.276;2023-02-04T09:55:00;103709.99999999999;;;8.9;96.0
67345;BME280;54230;52.402;6.276;2023-02-04T10:00:00;103720.0;;;9.0;92.1
67345;BME280;54230;52.402;6.276;2023-02-04T10:05:00;103730.0;;;8.9;92.5
67345;BME280;54230;52.402;6.276;2023-02-04T10:10:00;103740.00000000001;;;8.8;92.6
67345;BME280;54230;52.402;6.276;2023-02-04T10:15:00;103750.0;;;8.6;91.9
67345;BME280;54230;52.402;6.276;2023-02-04T10:20:00;103740.00000000001;;;8.6;93.1
67345;BME280;54230;52.402;6.276;2023-02-04T10:25:00;103740.00000000001;;;8.7;91.6
67345;BME280;54230;52.402;6.276;2023-02-04T10:30:00;103740.00000000001;;;8.7;91.7
67345;BME280;54230;52.402;6.276;2023-02-04T10:35:01;103740.00000000001;;;8.7;91.5
67345;BME280;54230;52.402;6.276;2023-02-04T10:40:00;103750.0;;;8.9;92.3
67345;BME280;54230;52.402;6.276;2023-02-04T10:45:00;103750.0;;;9.0;90.5
67345;BME280;54230;52.402;6.276;2023-02-04T10:50:03;103759.99999999999;;;8.9;90.9
67345;BME280;54230;52.402;6.276;2023-02-04T10:55:01;103759.99999999999;;;8.8;89.8
67345;BME280;54230;52.402;6.276;2023-02-04T11:00:02;103759.99999999999;;;8.8;90.6
67345;BME280;54230;52.402;6.276;2023-02-04T11:05:00;103770.0;;;8.9;91.0
67345;BME280;54230;52.402;6.276;2023-02-04T11:10:00;103780.0;;;9.1;89.4
67345;BME280;54230;52.402;6.276;2023-02-04T11:15:00;103770.0;;;9.4;88.8
67345;BME280;54230;52.402;6.276;2023-02-04T11:20:14;103770.0;;;9.4;87.1
67345;BME280;54230;52.402;6.276;2023-02-04T11:25:00;103770.0;;;9.7;87.1
67345;BME280;54230;52.402;6.276;2023-02-04T11:30:04;103759.99999999999;;;9.8;87.6
67345;BME280;54230;52.402;6.276;2023-02-04T11:35:07;103759.99999999999;;;9.9;86.4
67345;BME280;54230;52.402;6.276;2023-02-04T11:40:00;103750.0;;;9.9;86.8
67345;BME280;54230;52.402;6.276;2023-02-04T11:45:05;103750.0;;;10.0;85.9
67345;BME280;54230;52.402;6.276;2023-02-04T11:50:02;103759.99999999999;;;10.1;85.0
67345;BME280;54230;52.402;6.276;2023-02-04T11:55:00;103759.99999999999;;;10.2;84.4
67345;BME280;54230;52.402;6.276;2023-02-04T12:00:00;103759.99999999999;;;10.2;83.3
67345;BME280;54230;52.402;6.276;2023-02-04T12:05:09;103750.0;;;10.2;83.4
67345;BME280;54230;52.402;6.276;2023-02-04T12:10:10;103750.0;;;10.3;83.7
67345;BME280;54230;52.402;6.276;2023-02-04T12:15:03;103750.0;;;10.5;82.7
67345;BME280;54230;52.402;6.276;2023-02-04T12:20:00;103740.00000000001;;;10.6;81.6
67345;BME280;54230;52.402;6.276;2023-02-04T12:25:00;103740.00000000001;;;10.4;82.3
67345;BME280;54230;52.402;6.276;2023-02-04T12:30:00;103740.00000000001;;;10.4;81.2
67345;BME280;54230;52.402;6.276;2023-02-04T12:35:00;103750.0;;;10.5;81.4
67345;BME280;54230;52.402;6.276;2023-02-04T12:40:00;103750.0;;;10.5;78.5
67345;BME280;54230;52.402;6.276;2023-02-04T12:45:00;103759.99999999999;;;10.8;78.7
67345;BME280;54230;52.402;6.276;2023-02-04T12:50:00;103759.99999999999;;;10.9;78.0
67345;BME280;54230;52.402;6.276;2023-02-04T12:55:00;103759.99999999999;;;10.9;76.7
67345;BME280;54230;52.402;6.276;2023-02-04T13:00:00;103759.99999999999;;;10.9;77.2
67345;BME280;54230;52.402;6.276;2023-02-04T13:05:00;103759.99999999999;;;10.9;77.3
67345;BME280;54230;52.402;6.276;2023-02-04T13:10:00;103750.0;;;10.6;77.1
67345;BME280;54230;52.402;6.276;2023-02-04T13:15:00;103750.0;;;10.4;76.9
67345;BME280;54230;52.402;6.276;2023-02-04T13:20:00;103740.00000000001;;;10.4;77.8
67345;BME280;54230;52.402;6.276;2023-02-04T13:25:00;103740.00000000001;;;10.4;78.1
67345;BME280;54230;52.402;6.276;2023-02-04T13:30:01;103730.0;;;10.2;78.1
67345;BME280;54230;52.402;6.276;2023-02-04T13:35:00;103730.0;;;10.1;76.4
67345;BME280;54230;52.402;6.276;2023-02-04T13:40:00;103730.0;;;10.1;77.4
67345;BME280;54230;52.402;6.276;2023-02-04T13:45:00;103730.0;;;10.1;77.1
67345;BME280;54230;52.402;6.276;2023-02-04T13:50:00;103730.0;;;10.2;76.3
67345;BME280;54230;52.402;6.276;2023-02-04T13:55:00;103740.00000000001;;;10.4;76.9
67345;BME280;54230;52.402;6.276;2023-02-04T14:00:00;103740.00000000001;;;10.6;76.2
67345;BME280;54230;52.402;6.276;2023-02-04T14:05:00;103730.0;;;10.8;74.8
67345;BME280;54230;52.402;6.276;2023-02-04T14:10:00;103730.0;;;11.1;74.7
67345;BME280;54230;52.402;6.276;2023-02-04T14:15:00;103730.0;;;11.2;73.6
67345;BME280;54230;52.402;6.276;2023-02-04T14:20:00;103740.00000000001;;;11.4;73.1
67345;BME280;54230;52.402;6.276;2023-02-04T14:25:00;103740.00000000001;;;11.5;71.7
67345;BME280;54230;52.402;6.276;2023-02-04T14:30:00;103740.00000000001;;;11.6;71.8
67345;BME280;54230;52.402;6.276;2023-02-04T14:35:00;103740.00000000001;;;11.8;70.8
67345;BME280;54230;52.402;6.276;2023-02-04T14:40:00;103740.00000000001;;;11.7;70.7
67345;BME280;54230;52.402;6.276;2023-02-04T14:45:00;103740.00000000001;;;11.9;69.8
67345;BME280;54230;52.402;6.276;2023-02-04T14:50:00;103730.0;;;11.9;66.8
67345;BME280;54230;52.402;6.276;2023-02-04T14:55:00;103740.00000000001;;;12.1;67.2
67345;BME280;54230;52.402;6.276;2023-02-04T15:00:00;103740.00000000001;;;12.7;66.2
67345;BME280;54230;52.402;6.276;2023-02-04T15:05:00;103750.0;;;13.0;63.4
67345;BME280;54230;52.402;6.276;2023-02-04T15:10:00;103759.99999999999;;;13.4;63.6
67345;BME280;54230;52.402;6.276;2023-02-04T15:15:00;103759.99999999999;;;13.3;62.6
67345;BME280;54230;52.402;6.276;2023-02-04T15:20:00;103759.99999999999;;;12.9;63.7
67345;BME280;54230;52.402;6.276;2023-02-04T15:25:00;103770.0;;;12.5;63.8
67345;BME280;54230;52.402;6.276;2023-02-04T15:30:00;103759.99999999999;;;12.2;64.5
67345;BME280;54230;52.402;6.276;2023-02-04T15:35:00;103780.0;;;12.1;64.4
67345;BME280;54230;52.402;6.276;2023-02-04T15:40:00;103780.0;;;12.1;65.5
67345;BME280;54230;52.402;6.276;2023-02-04T15:45:00;103780.0;;;12.0;65.7
67345;BME280;54230;52.402;6.276;2023-02-04T15:50:00;103780.0;;;11.8;66.2
67345;BME280;54230;52.402;6.276;2023-02-04T15:55:00;103780.0;;;11.3;67.6
67345;BME280;54230;52.402;6.276;2023-02-04T16:00:00;103770.0;;;11.1;68.6
67345;BME280;54230;52.402;6.276;2023-02-04T16:05:00;103780.0;;;10.7;69.9
67345;BME280;54230;52.402;6.276;2023-02-04T16:10:00;103790.00000000001;;;10.3;71.6
67345;BME280;54230;52.402;6.276;2023-02-04T16:15:00;103790.00000000001;;;9.9;72.1
67345;BME280;54230;52.402;6.276;2023-02-04T16:20:02;103790.00000000001;;;9.7;74.2
67345;BME280;54230;52.402;6.276;2023-02-04T16:25:00;103800.0;;;9.5;75.4
67345;BME280;54230;52.402;6.276;2023-02-04T16:30:00;103800.0;;;9.3;76.7
67345;BME280;54230;52.402;6.276;2023-02-04T16:35:00;103790.00000000001;;;9.2;77.5
67345;BME280;54230;52.402;6.276;2023-02-04T16:40:00;103800.0;;;9.1;78.3
67345;BME280;54230;52.402;6.276;2023-02-04T16:45:00;103800.0;;;9.0;79.0
67345;BME280;54230;52.402;6.276;2023-02-04T16:50:00;103800.0;;;8.9;79.2
67345;BME280;54230;52.402;6.276;2023-02-04T16:55:00;103800.0;;;8.8;79.9
67345;BME280;54230;52.402;6.276;2023-02-04T17:00:00;103790.00000000001;;;8.7;80.4
67345;BME280;54230;52.402;6.276;2023-02-04T17:05:00;103800.0;;;8.7;80.4
67345;BME280;54230;52.402;6.276;2023-02-04T17:10:00;103809.99999999999;;;8.7;80.5
67345;BME280;54230;52.402;6.276;2023-02-04T17:15:00;103809.99999999999;;;8.6;80.4
67345;BME280;54230;52.402;6.276;2023-02-04T17:20:00;103820.0;;;8.5;80.9
67345;BME280;54230;52.402;6.276;2023-02-04T17:25:00;103830.0;;;8.5;81.0
67345;BME280;54230;52.402;6.276;2023-02-04T17:30:00;103809.99999999999;;;8.4;81.2
67345;BME280;54230;52.402;6.276;2023-02-04T17:35:00;103820.0;;;8.5;81.3
67345;BME280;54230;52.402;6.276;2023-02-04T17:40:00;103820.0;;;8.4;80.9
67345;BME280;54230;52.402;6.276;2023-02-04T17:45:00;103809.99999999999;;;8.4;80.9
67345;BME280;54230;52.402;6.276;2023-02-04T17:50:00;103820.0;;;8.4;80.7
67345;BME280;54230;52.402;6.276;2023-02-04T17:55:01;103820.0;;;8.3;81.0
67345;BME280;54230;52.402;6.276;2023-02-04T18:00:00;103830.0;;;8.3;80.8
67345;BME280;54230;52.402;6.276;2023-02-04T18:05:07;103830.0;;;8.2;81.5
67345;BME280;54230;52.402;6.276;2023-02-04T18:10:09;103840.00000000001;;;8.2;82.0
67345;BME280;54230;52.402;6.276;2023-02-04T18:15:00;103840.00000000001;;;8.1;82.3
67345;BME280;54230;52.402;6.276;2023-02-04T18:20:00;103830.0;;;8.1;82.0
67345;BME280;54230;52.402;6.276;2023-02-04T18:25:04;103840.00000000001;;;8.0;82.7
67345;BME280;54230;52.402;6.276;2023-02-04T18:30:00;103840.00000000001;;;7.9;82.5
67345;BME280;54230;52.402;6.276;2023-02-04T18:35:02;103840.00000000001;;;7.9;83.1
67345;BME280;54230;52.402;6.276;2023-02-04T18:45:15;103850.0;;;7.9;83.6
67345;BME280;54230;52.402;6.276;2023-02-04T18:50:14;103840.00000000001;;;7.9;83.8
67345;BME280;54230;52.402;6.276;2023-02-04T18:55:00;103840.00000000001;;;7.9;84.1
67345;BME280;54230;52.402;6.276;2023-02-04T19:00:17;103850.0;;;8.0;84.4
67345;BME280;54230;52.402;6.276;2023-02-04T19:05:01;103850.0;;;7.9;85.4
67345;BME280;54230;52.402;6.276;2023-02-04T19:10:04;103850.0;;;7.9;86.0
67345;BME280;54230;52.402;6.276;2023-02-04T19:15:00;103840.00000000001;;;7.9;87.0
67345;BME280;54230;52.402;6.276;2023-02-04T19:20:02;103830.0;;;7.8;87.2
67345;BME280;54230;52.402;6.276;2023-02-04T19:30:01;103850.0;;;7.8;87.9
67345;BME280;54230;52.402;6.276;2023-02-04T19:35:14;103850.0;;;7.8;87.7
67345;BME280;54230;52.402;6.276;2023-02-04T19:40:00;103850.0;;;7.7;88.4
67345;BME280;54230;52.402;6.276;2023-02-04T19:45:05;103850.0;;;7.7;88.9
67345;BME280;54230;52.402;6.276;2023-02-04T19:50:17;103850.0;;;7.6;89.6
67345;BME280;54230;52.402;6.276;2023-02-04T19:55:21;103840.00000000001;;;7.6;90.2
67345;BME280;54230;52.402;6.276;2023-02-04T20:00:00;103840.00000000001;;;7.6;89.3
67345;BME280;54230;52.402;6.276;2023-02-04T20:05:01;103850.0;;;7.6;89.8
67345;BME280;54230;52.402;6.276;2023-02-04T20:10:13;103830.0;;;7.5;89.3
67345;BME280;54230;52.402;6.276;2023-02-04T20:15:09;103830.0;;;7.5;89.9
67345;BME280;54230;52.402;6.276;2023-02-04T20:20:14;103830.0;;;7.4;90.4
67345;BME280;54230;52.402;6.276;2023-02-04T20:30:19;103809.99999999999;;;7.4;90.9
67345;BME280;54230;52.402;6.276;2023-02-04T20:40:12;103830.0;;;7.4;91.1
67345;BME280;54230;52.402;6.276;2023-02-04T20:45:11;103840.00000000001;;;7.3;91.2
67345;BME280;54230;52.402;6.276;2023-02-04T20:50:00;103850.0;;;7.1;92.7
67345;BME280;54230;52.402;6.276;2023-02-04T20:55:00;103840.00000000001;;;7.2;93.3
67345;BME280;54230;52.402;6.276;2023-02-04T21:00:10;103840.00000000001;;;7.2;93.8
67345;BME280;54230;52.402;6.276;2023-02-04T21:05:00;103840.00000000001;;;7.2;94.2
67345;BME280;54230;52.402;6.276;2023-02-04T21:10:00;103830.0;;;7.2;94.1
67345;BME280;54230;52.402;6.276;2023-02-04T21:15:00;103820.0;;;7.2;94.5
67345;BME280;54230;52.402;6.276;2023-02-04T21:20:00;103820.0;;;7.3;94.9
67345;BME280;54230;52.402;6.276;2023-02-04T21:25:00;103820.0;;;7.3;95.2
67345;BME280;54230;52.402;6.276;2023-02-04T21:30:00;103809.99999999999;;;7.2;95.1
67345;BME280;54230;52.402;6.276;2023-02-04T21:35:00;103780.0;;;7.0;95.7
67345;BME280;54230;52.402;6.276;2023-02-04T21:40:00;103800.0;;;7.1;95.7
67345;BME280;54230;52.402;6.276;2023-02-04T21:45:00;103790.00000000001;;;7.1;96.1
67345;BME280;54230;52.402;6.276;2023-02-04T21:50:00;103790.00000000001;;;7.1;96.5
67345;BME280;54230;52.402;6.276;2023-02-04T21:55:00;103800.0;;;6.9;96.6
67345;BME280;54230;52.402;6.276;2023-02-04T22:00:00;103800.0;;;6.9;97.1
67345;BME280;54230;52.402;6.276;2023-02-04T22:05:00;103790.00000000001;;;6.8;97.6
67345;BME280;54230;52.402;6.276;2023-02-04T22:10:00;103809.99999999999;;;6.8;97.5
67345;BME280;54230;52.402;6.276;2023-02-04T22:15:00;103800.0;;;6.8;98.0
67345;BME280;54230;52.402;6.276;2023-02-04T22:20:00;103809.99999999999;;;6.8;98.2
67345;BME280;54230;52.402;6.276;2023-02-04T22:25:00;103800.0;;;6.8;98.2
67345;BME280;54230;52.402;6.276;2023-02-04T22:30:00;103800.0;;;6.8;98.0
67345;BME280;54230;52.402;6.276;2023-02-04T22:35:00;103800.0;;;6.7;97.9
67345;BME280;54230;52.402;6.276;2023-02-04T22:40:00;103809.99999999999;;;6.8;98.2
67345;BME280;54230;52.402;6.276;2023-02-04T22:45:00;103809.99999999999;;;6.8;98.0
67345;BME280;54230;52.402;6.276;2023-02-04T22:50:00;103809.99999999999;;;6.8;98.3
67345;BME280;54230;52.402;6.276;2023-02-04T22:55:00;103809.99999999999;;;6.8;98.4
67345;BME280;54230;52.402;6.276;2023-02-04T23:00:00;103809.99999999999;;;6.8;98.5
67345;BME280;54230;52.402;6.276;2023-02-04T23:05:00;103800.0;;;6.8;98.8
67345;BME280;54230;52.402;6.276;2023-02-04T23:10:00;103800.0;;;6.8;98.8
67345;BME280;54230;52.402;6.276;2023-02-04T23:15:00;103780.0;;;6.8;98.9
67345;BME280;54230;52.402;6.276;2023-02-04T23:20:00;103780.0;;;6.7;98.9
67345;BME280;54230;52.402;6.276;2023-02-04T23:25:00;103770.0;;;6.7;98.7
67345;BME280;54230;52.402;6.276;2023-02-04T23:30:00;103770.0;;;6.6;99.3
67345;BME280;54230;52.402;6.276;2023-02-04T23:35:00;103759.99999999999;;;6.6;99.5
67345;BME280;54230;52.402;6.276;2023-02-04T23:40:00;103740.00000000001;;;6.6;100.0
67345;BME280;54230;52.402;6.276;2023-02-04T23:45:00;103740.00000000001;;;6.5;100.0
67345;BME280;54230;52.402;6.276;2023-02-04T23:50:00;103720.0;;;6.5;100.0
67345;BME280;54230;52.402;6.276;2023-02-04T23:55:00;103730.0;;;6.5;100.0
